Time;durP1;ratioP1;P1;durP2;ratioP2;P2;SDS_P1;SDS_P2;PMS_P1;PMS_P2;Temp;Humidity;BMP_temperature;BMP_pressure;BME280_temperature;BME280_humidity;BME280_pressure;Samples;Min_cycle;Max_cycle;Signal;HPM_P1;HPM_P2
2021/09/02 00:01:57;;;;;;;32.90;20.88;;;16.30;99.90;;;;;;5010068;28;25077;-72
2021/09/02 00:04:24;;;;;;;28.02;20.60;;;16.30;99.90;;;;;;5009031;28;25081;-72
2021/09/02 00:06:49;;;;;;;35.97;20.05;;;16.20;99.90;;;;;;5009011;28;25107;-71
2021/09/02 00:09:15;;;;;;;32.13;20.02;;;16.30;99.90;;;;;;4996784;28;25150;-72
2021/09/02 00:11:42;;;;;;;32.28;20.45;;;16.30;99.90;;;;;;4996264;28;25077;-71
2021/09/02 00:14:07;;;;;;;31.13;20.52;;;16.40;99.90;;;;;;5008852;28;25079;-71
2021/09/02 00:16:33;;;;;;;31.05;19.45;;;16.40;99.90;;;;;;4998889;28;25100;-71
2021/09/02 00:18:59;;;;;;;26.58;20.23;;;16.40;99.90;;;;;;5005129;28;25086;-72
2021/09/02 00:21:24;;;;;;;25.52;17.77;;;16.40;99.90;;;;;;4996278;28;25070;-72
2021/09/02 00:23:50;;;;;;;28.42;18.20;;;16.50;99.90;;;;;;4994549;28;25057;-70
2021/09/02 00:26:16;;;;;;;28.42;18.10;;;16.50;99.90;;;;;;5002603;28;25090;-71
2021/09/02 00:28:41;;;;;;;24.48;18.45;;;16.50;99.90;;;;;;5008028;28;25078;-71
2021/09/02 00:31:07;;;;;;;32.80;17.48;;;16.50;99.90;;;;;;5008070;28;25060;-73
2021/09/02 00:33:32;;;;;;;28.80;17.88;;;16.40;99.90;;;;;;5007410;28;25159;-71
2021/09/02 00:35:58;;;;;;;22.58;15.73;;;16.40;99.90;;;;;;5007019;28;25066;-72
2021/09/02 00:38:24;;;;;;;26.10;15.57;;;16.30;99.90;;;;;;5005566;28;25053;-71
2021/09/02 00:40:50;;;;;;;23.85;15.13;;;16.40;99.90;;;;;;5008645;28;25144;-71
2021/09/02 00:43:16;;;;;;;21.52;14.27;;;16.40;99.90;;;;;;5001796;28;25071;-71
2021/09/02 00:45:42;;;;;;;19.08;13.70;;;16.40;99.90;;;;;;4990850;28;25075;-72
2021/09/02 00:48:08;;;;;;;20.48;13.68;;;16.40;99.90;;;;;;5008796;28;25074;-71
2021/09/02 00:50:34;;;;;;;17.75;13.25;;;16.40;99.90;;;;;;5009855;28;25074;-71
2021/09/02 00:53:03;;;;;;;18.90;12.85;;;16.30;99.90;;;;;;4995431;28;25080;-71
2021/09/02 00:55:31;;;;;;;24.10;12.95;;;16.30;99.90;;;;;;5007868;28;25090;-72
2021/09/02 00:57:57;;;;;;;18.25;13.50;;;16.40;99.90;;;;;;5007383;28;25086;-71
2021/09/02 01:00:23;;;;;;;16.75;12.95;;;16.40;99.90;;;;;;4998417;28;25085;-70
2021/09/02 01:02:48;;;;;;;22.13;11.93;;;16.30;99.90;;;;;;5007615;28;25085;-70
2021/09/02 01:05:19;;;;;;;25.70;13.38;;;16.30;99.90;;;;;;5005787;28;25052;-71
2021/09/02 01:07:45;;;;;;;19.88;11.52;;;16.40;99.90;;;;;;5007746;28;25068;-71
2021/09/02 01:10:11;;;;;;;17.00;11.70;;;16.40;99.90;;;;;;5000277;28;25070;-71
2021/09/02 01:12:38;;;;;;;18.00;11.77;;;16.50;99.90;;;;;;5009317;28;25062;-71
2021/09/02 01:15:23;;;;;;;15.63;11.45;;;16.60;99.90;;;;;;5008756;28;25094;-72
2021/09/02 01:17:53;;;;;;;15.32;12.30;;;16.50;99.90;;;;;;5008297;28;25178;-71
2021/09/02 01:20:22;;;;;;;17.05;10.75;;;16.40;99.90;;;;;;5009168;28;25109;-72
2021/09/02 01:22:51;;;;;;;18.85;12.10;;;16.20;99.90;;;;;;5007649;28;25063;-70
2021/09/02 01:25:19;;;;;;;18.58;10.77;;;16.20;99.90;;;;;;5009463;28;25071;-72
2021/09/02 01:27:48;;;;;;;16.77;11.70;;;16.20;99.90;;;;;;5008172;28;25183;-72
2021/09/02 01:30:14;;;;;;;17.50;11.07;;;16.30;99.90;;;;;;5008116;28;25106;-71
2021/09/02 01:32:41;;;;;;;16.25;10.68;;;16.20;99.90;;;;;;5008359;28;25064;-73
2021/09/02 01:35:09;;;;;;;14.55;10.80;;;16.20;99.90;;;;;;5006630;28;25084;-72
2021/09/02 01:37:42;;;;;;;11.35;9.45;;;16.20;99.90;;;;;;5000551;28;25070;-72
2021/09/02 01:40:11;;;;;;;14.55;10.00;;;16.20;99.90;;;;;;5004842;28;25061;-71
2021/09/02 01:42:36;;;;;;;16.83;9.75;;;16.30;99.90;;;;;;5008077;28;25064;-72
2021/09/02 01:45:03;;;;;;;15.15;9.95;;;16.40;99.90;;;;;;5009321;28;25146;-72
2021/09/02 01:47:28;;;;;;;11.95;8.80;;;16.40;99.90;;;;;;5012298;28;25059;-71
2021/09/02 01:50:02;;;;;;;14.05;9.30;;;16.50;99.90;;;;;;5014183;28;25082;-70
2021/09/02 01:52:29;;;;;;;15.32;9.73;;;16.40;99.90;;;;;;5013268;28;25071;-73
2021/09/02 01:54:55;;;;;;;15.77;9.40;;;16.30;99.90;;;;;;5020608;28;25115;-71
2021/09/02 01:57:20;;;;;;;14.13;8.80;;;16.30;99.90;;;;;;5020979;28;25084;-70
2021/09/02 01:59:46;;;;;;;13.73;9.55;;;16.20;99.90;;;;;;5007313;28;25071;-72
2021/09/02 02:02:11;;;;;;;16.13;8.98;;;16.20;99.90;;;;;;5012244;28;25067;-72
2021/09/02 02:04:37;;;;;;;12.90;9.50;;;16.30;99.90;;;;;;5010942;28;25076;-71
2021/09/02 02:07:03;;;;;;;19.95;9.55;;;16.20;99.90;;;;;;5012112;28;25074;-71
2021/09/02 02:09:29;;;;;;;11.93;8.88;;;16.20;99.90;;;;;;5010295;28;25150;-71
2021/09/02 02:11:54;;;;;;;15.85;8.18;;;16.30;99.90;;;;;;5012030;28;25107;-71
2021/09/02 02:14:20;;;;;;;13.23;9.48;;;16.30;99.90;;;;;;5011573;28;25176;-71
2021/09/02 02:16:46;;;;;;;14.40;9.07;;;16.30;99.90;;;;;;5011326;28;25231;-72
2021/09/02 02:19:12;;;;;;;16.00;9.10;;;16.20;99.90;;;;;;5008739;28;25160;-70
2021/09/02 02:21:38;;;;;;;12.82;8.32;;;16.20;99.90;;;;;;5011543;28;25096;-72
2021/09/02 02:24:04;;;;;;;12.85;9.00;;;16.20;99.90;;;;;;5013138;28;25146;-72
2021/09/02 02:26:30;;;;;;;11.48;8.70;;;16.20;99.90;;;;;;5012239;28;25462;-71
2021/09/02 02:28:56;;;;;;;13.68;8.45;;;16.20;99.90;;;;;;5009611;28;25081;-71
2021/09/02 02:31:21;;;;;;;14.05;9.35;;;16.20;99.90;;;;;;5012329;28;25107;-72
2021/09/02 02:33:47;;;;;;;10.48;8.88;;;16.20;99.90;;;;;;5010842;28;25161;-72
2021/09/02 02:36:12;;;;;;;12.57;8.18;;;16.20;99.90;;;;;;5012493;28;25112;-70
2021/09/02 02:38:38;;;;;;;12.38;8.18;;;16.20;99.90;;;;;;5010773;28;25074;-72
2021/09/02 02:41:04;;;;;;;13.93;8.40;;;16.20;99.90;;;;;;5011510;28;25060;-73
2021/09/02 02:43:29;;;;;;;12.82;7.57;;;16.10;99.90;;;;;;5011283;28;25156;-72
2021/09/02 02:45:57;;;;;;;11.93;8.10;;;16.10;99.90;;;;;;5008960;28;25051;-71
2021/09/02 02:48:23;;;;;;;13.40;7.53;;;16.10;99.90;;;;;;5009143;28;25106;-70
2021/09/02 02:50:49;;;;;;;11.68;7.90;;;16.00;99.90;;;;;;5011206;28;25090;-72
2021/09/02 02:53:14;;;;;;;12.48;8.98;;;16.00;99.90;;;;;;5010582;28;25113;-70
2021/09/02 02:55:40;;;;;;;12.75;7.97;;;16.00;99.90;;;;;;5011466;28;25079;-71
2021/09/02 02:58:05;;;;;;;12.27;8.00;;;16.00;99.90;;;;;;5009815;28;25156;-71
2021/09/02 03:00:31;;;;;;;14.75;7.90;;;16.10;99.90;;;;;;5012175;28;25081;-73
2021/09/02 03:02:57;;;;;;;12.20;8.88;;;16.20;99.90;;;;;;5010344;28;25067;-71
2021/09/02 03:05:22;;;;;;;11.55;9.15;;;16.20;99.90;;;;;;5010990;28;25058;-74
2021/09/02 03:07:48;;;;;;;17.70;10.32;;;16.20;99.90;;;;;;5010913;28;25059;-71
2021/09/02 03:10:14;;;;;;;14.55;9.13;;;16.10;99.90;;;;;;5011211;28;25068;-72
2021/09/02 03:12:39;;;;;;;15.88;9.13;;;16.10;99.90;;;;;;5010408;28;25080;-73
2021/09/02 03:15:07;;;;;;;18.60;9.90;;;16.20;99.90;;;;;;5010191;28;25081;-72
2021/09/02 03:17:34;;;;;;;15.77;9.65;;;16.10;99.90;;;;;;5010975;28;25096;-73
2021/09/02 03:20:00;;;;;;;18.00;9.45;;;16.10;99.90;;;;;;5010337;28;25066;-71
2021/09/02 03:22:25;;;;;;;18.17;9.93;;;16.00;99.90;;;;;;5011075;28;25061;-71
2021/09/02 03:24:51;;;;;;;15.32;9.25;;;16.00;99.90;;;;;;5010810;28;25109;-71
2021/09/02 03:27:17;;;;;;;14.05;9.07;;;15.90;99.90;;;;;;5010575;28;25095;-72
2021/09/02 03:29:43;;;;;;;14.02;8.95;;;15.90;99.90;;;;;;5010707;28;25068;-71
2021/09/02 03:32:08;;;;;;;14.68;8.85;;;16.00;99.90;;;;;;5010558;28;25061;-71
2021/09/02 03:34:34;;;;;;;14.30;8.70;;;16.00;99.90;;;;;;5012970;28;25113;-73
2021/09/02 03:37:00;;;;;;;15.68;8.90;;;16.00;99.90;;;;;;5011607;28;25063;-72
2021/09/02 03:39:25;;;;;;;19.35;9.18;;;16.10;99.90;;;;;;5013183;28;25076;-71
2021/09/02 03:41:51;;;;;;;10.35;8.10;;;16.10;99.90;;;;;;5009328;28;25080;-70
2021/09/02 03:44:17;;;;;;;14.18;8.63;;;16.20;99.90;;;;;;5005484;28;25068;-70
2021/09/02 03:46:43;;;;;;;14.63;7.93;;;16.20;99.90;;;;;;5001440;28;25071;-72
2021/09/02 03:49:09;;;;;;;15.65;9.02;;;16.20;99.90;;;;;;5007563;28;25128;-72
2021/09/02 03:51:34;;;;;;;13.40;8.77;;;16.20;99.90;;;;;;5000108;28;25050;-72
2021/09/02 03:54:00;;;;;;;15.68;9.68;;;16.10;99.90;;;;;;5009162;28;25164;-71
2021/09/02 03:56:26;;;;;;;13.70;9.75;;;16.10;99.90;;;;;;5010590;28;25075;-70
2021/09/02 03:58:52;;;;;;;15.38;9.30;;;16.10;99.90;;;;;;5010253;28;25094;-70
2021/09/02 04:01:18;;;;;;;13.88;8.82;;;16.10;99.90;;;;;;5009315;28;25059;-74
2021/09/02 04:03:43;;;;;;;19.05;9.50;;;16.10;99.90;;;;;;5009692;28;25065;-71
2021/09/02 04:06:09;;;;;;;14.38;8.63;;;16.00;99.90;;;;;;5007057;28;25088;-71
2021/09/02 04:08:35;;;;;;;17.52;8.60;;;16.00;99.90;;;;;;5009026;28;25052;-70
2021/09/02 04:11:01;;;;;;;13.20;9.45;;;16.00;99.90;;;;;;5008199;28;25156;-70
2021/09/02 04:13:26;;;;;;;12.13;8.65;;;16.00;99.90;;;;;;5005433;28;25106;-70
2021/09/02 04:15:52;;;;;;;14.73;9.52;;;15.90;99.90;;;;;;5008526;28;25076;-71
2021/09/02 04:18:18;;;;;;;12.65;8.45;;;15.90;99.90;;;;;;5005649;28;25078;-71
2021/09/02 04:20:43;;;;;;;12.45;8.48;;;16.00;99.90;;;;;;5010694;28;25198;-70
2021/09/02 04:23:09;;;;;;;14.05;7.93;;;16.10;99.90;;;;;;5006515;28;25067;-71
2021/09/02 04:25:35;;;;;;;14.23;8.55;;;16.10;99.90;;;;;;5008716;28;25161;-70
2021/09/02 04:28:00;;;;;;;15.18;8.77;;;16.10;99.90;;;;;;5005065;28;25102;-71
2021/09/02 04:30:26;;;;;;;17.77;8.52;;;16.10;99.90;;;;;;4996539;28;25098;-70
2021/09/02 04:32:52;;;;;;;11.52;8.25;;;16.20;99.90;;;;;;4994528;28;25095;-69
2021/09/02 04:35:17;;;;;;;14.77;8.82;;;16.30;99.90;;;;;;4998012;28;25155;-71
2021/09/02 04:37:45;;;;;;;14.60;9.13;;;16.30;99.90;;;;;;4997257;28;25099;-71
2021/09/02 04:40:12;;;;;;;17.77;8.90;;;16.20;99.90;;;;;;4996954;28;25108;-70
2021/09/02 04:42:37;;;;;;;10.68;7.78;;;16.00;99.90;;;;;;4996849;28;25074;-70
2021/09/02 04:45:05;;;;;;;14.38;8.70;;;16.10;99.90;;;;;;4994967;28;25079;-69
2021/09/02 04:47:31;;;;;;;17.75;8.48;;;16.20;99.90;;;;;;5002618;28;25073;-72
2021/09/02 04:49:56;;;;;;;13.95;8.00;;;16.10;99.90;;;;;;5011016;28;25072;-71
2021/09/02 04:52:22;;;;;;;11.00;7.68;;;16.10;99.90;;;;;;5012435;28;25052;-71
2021/09/02 04:54:48;;;;;;;12.10;6.40;;;16.20;99.90;;;;;;5011496;28;25077;-74
2021/09/02 04:57:18;;;;;;;13.10;8.85;;;16.20;99.90;;;;;;5002815;28;25084;-71
2021/09/02 04:59:44;;;;;;;13.88;7.32;;;16.30;99.90;;;;;;4996103;28;25105;-70
2021/09/02 05:02:09;;;;;;;14.98;8.63;;;16.30;99.90;;;;;;5000066;28;25097;-73
2021/09/02 05:04:35;;;;;;;20.08;8.32;;;16.20;99.90;;;;;;4999867;28;24874;-70
2021/09/02 05:07:00;;;;;;;13.50;7.80;;;16.20;99.90;;;;;;5000492;28;25082;-71
2021/09/02 05:09:26;;;;;;;16.48;7.90;;;16.20;99.90;;;;;;5002079;28;25064;-70
2021/09/02 05:11:52;;;;;;;18.02;7.88;;;16.30;99.90;;;;;;5000342;28;25088;-69
2021/09/02 05:14:17;;;;;;;16.35;8.15;;;16.20;99.90;;;;;;5008564;28;25157;-69
2021/09/02 05:16:43;;;;;;;12.65;8.65;;;16.30;99.90;;;;;;5008497;28;25059;-70
2021/09/02 05:19:09;;;;;;;11.10;8.52;;;16.20;99.90;;;;;;5003941;28;25062;-71
2021/09/02 05:21:34;;;;;;;13.82;8.23;;;16.30;99.90;;;;;;5006358;28;25083;-68
2021/09/02 05:24:00;;;;;;;17.65;9.00;;;16.40;99.90;;;;;;4992812;28;25082;-71
2021/09/02 05:26:25;;;;;;;19.60;8.95;;;16.40;99.90;;;;;;4991877;28;25096;-70
2021/09/02 05:28:51;;;;;;;15.23;7.32;;;16.30;99.90;;;;;;4995689;28;25060;-69
2021/09/02 05:31:18;;;;;;;18.75;7.95;;;16.30;99.90;;;;;;4992988;28;25076;-70
2021/09/02 05:33:43;;;;;;;10.82;6.82;;;16.40;99.90;;;;;;4996551;28;25060;-72
2021/09/02 05:36:10;;;;;;;10.50;7.30;;;16.30;99.90;;;;;;4993579;28;25078;-70
2021/09/02 05:38:35;;;;;;;18.42;7.90;;;16.50;99.90;;;;;;5002765;28;25063;-71
2021/09/02 05:41:01;;;;;;;15.88;8.35;;;16.60;99.90;;;;;;5006502;28;25072;-70
2021/09/02 05:43:27;;;;;;;18.63;9.40;;;16.60;99.90;;;;;;5000849;28;25065;-71
2021/09/02 05:45:53;;;;;;;13.13;8.77;;;16.60;99.90;;;;;;5002597;28;25057;-70
2021/09/02 05:48:18;;;;;;;17.85;8.30;;;16.60;99.90;;;;;;4998718;28;25062;-71
2021/09/02 05:50:44;;;;;;;15.82;9.90;;;16.60;99.90;;;;;;5003184;28;25081;-69
2021/09/02 05:53:10;;;;;;;15.38;8.70;;;16.50;99.90;;;;;;5007113;28;25079;-69
2021/09/02 05:55:36;;;;;;;13.15;8.50;;;16.40;99.90;;;;;;4996331;28;25086;-69
2021/09/02 05:58:02;;;;;;;15.32;9.48;;;16.40;99.90;;;;;;5006443;28;25098;-71
2021/09/02 06:00:28;;;;;;;14.70;9.63;;;16.60;99.90;;;;;;5005290;28;25085;-70
2021/09/02 06:02:54;;;;;;;13.95;8.18;;;16.40;99.90;;;;;;5004080;28;25071;-72
2021/09/02 06:05:20;;;;;;;15.40;8.63;;;16.20;99.90;;;;;;5005332;28;25060;-71
2021/09/02 06:07:45;;;;;;;12.45;8.43;;;16.30;99.90;;;;;;5003970;28;25104;-70
2021/09/02 06:10:11;;;;;;;13.98;8.45;;;16.30;99.90;;;;;;5001334;28;25112;-71
2021/09/02 06:12:37;;;;;;;13.90;8.43;;;16.40;99.90;;;;;;4992471;28;25099;-71
2021/09/02 06:15:06;;;;;;;12.68;8.57;;;16.30;99.90;;;;;;5002639;28;25093;-71
2021/09/02 06:17:31;;;;;;;13.40;8.27;;;16.30;99.90;;;;;;5004829;28;25054;-71
2021/09/02 06:19:57;;;;;;;14.50;7.82;;;16.30;99.90;;;;;;4998194;28;25123;-70
2021/09/02 06:22:23;;;;;;;21.08;7.75;;;16.30;99.90;;;;;;5006066;28;25075;-72
2021/09/02 06:24:49;;;;;;;13.65;8.02;;;16.40;99.90;;;;;;5005499;28;25067;-72
2021/09/02 06:27:15;;;;;;;14.70;8.27;;;16.50;99.90;;;;;;4998097;28;25104;-73
2021/09/02 06:29:41;;;;;;;10.55;6.40;;;16.60;99.90;;;;;;5011124;28;25051;-72
2021/09/02 06:32:06;;;;;;;11.98;6.95;;;16.60;99.90;;;;;;5010565;28;25049;-72
2021/09/02 06:34:32;;;;;;;9.82;7.00;;;16.60;99.90;;;;;;5000452;28;25078;-72
2021/09/02 06:36:58;;;;;;;15.07;8.40;;;16.60;99.90;;;;;;5013076;28;25137;-71
2021/09/02 06:39:24;;;;;;;16.38;7.30;;;16.60;99.90;;;;;;5015739;28;25067;-72
2021/09/02 06:41:49;;;;;;;10.45;6.25;;;16.60;99.90;;;;;;5011924;28;25110;-73
2021/09/02 06:44:15;;;;;;;15.13;7.38;;;16.70;99.90;;;;;;5017750;28;25082;-72
2021/09/02 06:46:40;;;;;;;18.73;7.20;;;16.70;99.90;;;;;;5012090;28;25111;-73
2021/09/02 06:49:06;;;;;;;12.52;7.45;;;16.60;99.90;;;;;;5010073;28;25060;-72
2021/09/02 06:51:32;;;;;;;16.92;8.40;;;16.70;99.90;;;;;;5012094;28;25107;-73
2021/09/02 06:53:57;;;;;;;14.70;7.63;;;16.70;99.90;;;;;;5010172;28;25070;-71
2021/09/02 06:56:23;;;;;;;16.20;7.70;;;16.70;99.90;;;;;;5011898;28;25064;-72
2021/09/02 06:58:49;;;;;;;15.73;7.60;;;16.70;99.90;;;;;;5009660;28;25071;-73
2021/09/02 07:01:15;;;;;;;12.50;6.90;;;16.80;99.90;;;;;;5010922;28;25135;-73
2021/09/02 07:03:41;;;;;;;12.98;6.47;;;16.80;99.90;;;;;;5011761;28;25067;-72
2021/09/02 07:06:07;;;;;;;12.65;7.20;;;16.70;99.90;;;;;;5010314;28;25099;-72
2021/09/02 07:08:33;;;;;;;16.35;6.40;;;16.80;99.90;;;;;;5011419;28;25225;-73
2021/09/02 07:10:59;;;;;;;12.32;7.15;;;17.00;99.90;;;;;;5010553;28;25085;-72
2021/09/02 07:13:25;;;;;;;9.38;6.07;;;17.10;99.90;;;;;;5012811;28;25131;-71
2021/09/02 07:15:50;;;;;;;11.25;5.50;;;17.00;99.90;;;;;;5011135;28;25056;-72
2021/09/02 07:18:16;;;;;;;10.95;5.68;;;17.10;99.90;;;;;;5009282;28;25076;-72
2021/09/02 07:20:42;;;;;;;12.93;5.13;;;17.20;99.90;;;;;;4998542;28;25071;-72
2021/09/02 07:23:07;;;;;;;7.88;5.30;;;17.20;99.90;;;;;;5011600;28;25121;-72
2021/09/02 07:25:33;;;;;;;7.70;5.57;;;17.20;99.90;;;;;;5004748;28;25055;-72
2021/09/02 07:27:58;;;;;;;7.57;4.85;;;17.20;99.90;;;;;;4991776;28;25143;-71
2021/09/02 07:30:24;;;;;;;7.15;4.72;;;17.20;99.90;;;;;;5005971;28;25108;-72
2021/09/02 07:32:50;;;;;;;9.07;4.75;;;17.20;99.90;;;;;;5009711;28;25149;-72
2021/09/02 07:35:16;;;;;;;12.45;5.22;;;17.30;99.90;;;;;;5009741;28;25111;-74
2021/09/02 07:37:41;;;;;;;12.00;5.43;;;17.30;99.90;;;;;;5007831;28;25075;-73
2021/09/02 07:40:08;;;;;;;10.73;6.10;;;17.40;99.90;;;;;;5007657;28;25065;-73
2021/09/02 07:42:33;;;;;;;8.48;4.97;;;17.50;99.90;;;;;;5010194;28;25062;-72
2021/09/02 07:45:00;;;;;;;10.20;4.70;;;17.20;99.90;;;;;;5009860;28;25068;-72
2021/09/02 07:47:26;;;;;;;9.57;5.22;;;17.20;99.90;;;;;;5009468;28;25070;-72
2021/09/02 07:49:52;;;;;;;8.10;5.15;;;17.20;99.90;;;;;;5010726;28;25136;-72
2021/09/02 07:52:17;;;;;;;9.98;4.70;;;17.30;99.90;;;;;;5008927;28;25061;-71
2021/09/02 07:54:43;;;;;;;8.15;5.15;;;17.40;99.90;;;;;;5009829;28;25050;-72
2021/09/02 07:57:08;;;;;;;13.95;6.13;;;17.30;99.90;;;;;;5009264;28;25104;-72
2021/09/02 07:59:34;;;;;;;8.38;4.78;;;17.30;99.90;;;;;;5008290;28;25078;-73
2021/09/02 08:02:00;;;;;;;9.73;4.65;;;17.40;99.90;;;;;;5009028;28;25063;-72
2021/09/02 08:04:25;;;;;;;9.52;5.32;;;17.40;99.90;;;;;;5008964;28;25112;-72
2021/09/02 08:06:51;;;;;;;23.83;11.23;;;17.40;99.90;;;;;;5009787;28;25061;-72
2021/09/02 08:09:17;;;;;;;8.00;5.70;;;17.40;99.90;;;;;;5008366;28;25089;-72
2021/09/02 08:11:43;;;;;;;10.35;4.60;;;17.60;99.90;;;;;;5010456;28;25162;-71
2021/09/02 08:14:08;;;;;;;8.23;4.75;;;17.60;99.90;;;;;;5010136;28;25097;-72
2021/09/02 08:16:34;;;;;;;10.52;5.00;;;17.50;99.90;;;;;;5009451;28;25123;-71
2021/09/02 08:18:59;;;;;;;8.88;5.32;;;17.70;99.90;;;;;;5009552;28;25074;-72
2021/09/02 08:21:26;;;;;;;11.00;5.30;;;17.70;99.90;;;;;;5009563;28;25142;-72
2021/09/02 08:23:54;;;;;;;8.90;5.00;;;17.70;99.90;;;;;;5003932;28;25137;-73
2021/09/02 08:26:21;;;;;;;7.78;4.85;;;17.70;99.90;;;;;;5001741;28;25128;-72
2021/09/02 08:28:46;;;;;;;13.25;5.38;;;17.80;99.90;;;;;;4994763;28;25061;-72
2021/09/02 08:31:12;;;;;;;8.05;5.13;;;18.00;99.90;;;;;;5009559;28;25130;-73
2021/09/02 08:33:38;;;;;;;11.18;5.72;;;17.80;99.90;;;;;;5008221;28;25102;-71
2021/09/02 08:36:04;;;;;;;10.75;5.20;;;18.00;99.90;;;;;;5006035;28;25058;-73
2021/09/02 08:38:29;;;;;;;9.07;5.32;;;18.10;99.90;;;;;;5009872;28;25053;-72
2021/09/02 08:40:55;;;;;;;9.65;5.32;;;18.10;99.90;;;;;;5007303;28;25067;-73
2021/09/02 08:43:21;;;;;;;9.40;4.97;;;18.10;99.90;;;;;;5009763;28;25183;-72
2021/09/02 08:45:47;;;;;;;9.43;5.15;;;17.90;99.90;;;;;;5009387;28;25102;-72
2021/09/02 08:48:13;;;;;;;12.27;5.18;;;17.70;99.90;;;;;;5008630;28;25120;-72
2021/09/02 08:50:39;;;;;;;12.30;5.40;;;17.70;99.90;;;;;;5010490;28;25078;-72
2021/09/02 08:53:05;;;;;;;10.52;5.43;;;17.60;99.90;;;;;;5013846;28;25055;-72
2021/09/02 08:55:31;;;;;;;11.77;5.38;;;17.50;99.90;;;;;;5011625;28;25089;-72
2021/09/02 08:57:57;;;;;;;8.95;5.28;;;17.70;99.90;;;;;;5010808;28;25086;-73
2021/09/02 09:00:25;;;;;;;9.88;5.28;;;17.70;99.90;;;;;;5012646;28;25157;-73
2021/09/02 09:03:16;;;;;;;8.20;6.40;;;17.80;99.90;;;;;;5008358;28;25069;-72
2021/09/02 09:05:41;;;;;;;8.20;5.95;;;17.90;99.90;;;;;;5008342;28;25083;-71
2021/09/02 09:08:12;;;;;;;10.02;5.32;;;18.00;99.90;;;;;;5008459;28;25126;-72
2021/09/02 09:10:39;;;;;;;8.38;4.97;;;18.30;99.90;;;;;;5007771;28;25069;-72
2021/09/02 09:13:08;;;;;;;15.05;5.38;;;18.90;99.90;;;;;;5006937;28;25076;-72
2021/09/02 09:15:42;;;;;;;9.20;5.30;;;19.10;99.90;;;;;;5003486;28;25162;-73
2021/09/02 09:18:23;;;;;;;11.00;5.45;;;18.70;99.90;;;;;;5008293;28;25129;-74
2021/09/02 09:21:07;;;;;;;7.50;5.10;;;18.10;99.90;;;;;;5009586;28;25066;-73
2021/09/02 09:23:57;;;;;;;12.07;5.63;;;17.90;99.90;;;;;;5017295;28;25115;-73
2021/09/02 09:26:23;;;;;;;11.13;5.80;;;17.80;99.90;;;;;;5013591;28;25059;-72
2021/09/02 09:28:49;;;;;;;9.73;6.35;;;17.70;99.90;;;;;;5004543;28;25060;-73
2021/09/02 09:31:30;;;;;;;12.95;5.18;;;17.80;99.90;;;;;;5005089;28;25067;-72
2021/09/02 09:33:58;;;;;;;8.82;5.53;;;17.60;99.90;;;;;;5006440;28;25101;-72
2021/09/02 09:36:26;;;;;;;11.52;6.00;;;17.70;99.90;;;;;;5008851;28;25055;-72
2021/09/02 09:39:10;;;;;;;12.70;5.63;;;17.80;99.90;;;;;;5003487;28;25081;-71
2021/09/02 09:41:37;;;;;;;8.30;5.63;;;18.00;99.90;;;;;;5003686;28;25076;-72
2021/09/02 09:44:20;;;;;;;9.60;5.35;;;18.20;99.90;;;;;;5007041;28;25121;-72
2021/09/02 09:47:17;;;;;;;8.95;5.55;;;18.20;99.90;;;;;;5008418;28;25125;-72
2021/09/02 09:49:51;;;;;;;11.88;6.38;;;18.30;99.90;;;;;;5003520;28;25092;-72
2021/09/02 09:52:41;;;;;;;10.35;6.60;;;18.30;99.90;;;;;;5006376;28;25061;-72
2021/09/02 09:55:12;;;;;;;8.95;6.00;;;18.10;99.90;;;;;;5009049;28;25069;-72
2021/09/02 09:57:40;;;;;;;9.80;6.10;;;18.00;99.90;;;;;;5007276;28;25080;-72
2021/09/02 10:00:11;;;;;;;12.13;6.47;;;18.20;99.90;;;;;;5014783;28;25082;-72
2021/09/02 10:02:39;;;;;;;12.50;6.65;;;18.30;99.90;;;;;;5021399;28;25044;-74
2021/09/02 10:05:07;;;;;;;10.13;5.65;;;18.20;99.90;;;;;;5028098;28;25079;-72
2021/09/02 10:07:35;;;;;;;13.80;6.57;;;18.20;99.90;;;;;;5021919;28;25135;-73
2021/09/02 10:10:01;;;;;;;10.68;6.05;;;18.30;99.90;;;;;;5016718;28;25059;-71
2021/09/02 10:12:27;;;;;;;11.32;5.65;;;18.30;99.90;;;;;;5011391;28;25174;-72
2021/09/02 10:14:55;;;;;;;15.48;6.47;;;18.50;99.90;;;;;;5013161;28;25102;-74
2021/09/02 10:17:20;;;;;;;12.85;6.75;;;18.50;99.90;;;;;;5013810;28;25151;-73
2021/09/02 10:19:48;;;;;;;11.07;5.80;;;18.40;99.90;;;;;;5011884;28;25090;-74
2021/09/02 10:22:14;;;;;;;11.77;5.75;;;18.30;99.90;;;;;;5007713;28;25082;-73
2021/09/02 10:24:42;;;;;;;9.70;5.78;;;18.40;99.90;;;;;;5011958;28;25055;-72
2021/09/02 10:27:16;;;;;;;14.70;6.35;;;18.40;99.90;;;;;;5007737;28;25136;-73
2021/09/02 10:29:44;;;;;;;14.70;7.45;;;18.50;99.90;;;;;;5010304;28;25132;-72
2021/09/02 10:32:22;;;;;;;11.23;6.97;;;18.60;99.90;;;;;;5011771;28;25069;-72
2021/09/02 10:35:11;;;;;;;10.45;6.63;;;18.70;99.90;;;;;;5012358;28;25129;-72
2021/09/02 10:37:50;;;;;;;11.50;7.80;;;18.90;99.90;;;;;;5005470;28;25060;-72
2021/09/02 10:40:15;;;;;;;11.85;6.70;;;18.40;99.90;;;;;;5006541;28;25081;-73
2021/09/02 10:42:52;;;;;;;10.73;7.43;;;18.40;99.90;;;;;;5012123;28;25070;-73
2021/09/02 10:45:27;;;;;;;12.50;7.13;;;18.40;99.90;;;;;;5010646;28;25150;-73
2021/09/02 10:47:56;;;;;;;10.65;7.47;;;18.30;99.90;;;;;;5013742;28;25099;-72
2021/09/02 10:50:24;;;;;;;13.40;7.28;;;18.50;99.90;;;;;;5009412;28;25063;-73
2021/09/02 10:52:51;;;;;;;12.77;7.95;;;18.90;99.90;;;;;;5011099;28;25141;-73
2021/09/02 10:55:36;;;;;;;13.43;7.70;;;19.20;99.90;;;;;;5010370;28;25053;-72
2021/09/02 10:58:05;;;;;;;13.48;8.48;;;19.10;99.90;;;;;;4999747;28;25091;-73
2021/09/02 11:00:35;;;;;;;14.15;7.32;;;19.00;99.90;;;;;;5011800;28;25156;-73
2021/09/02 11:03:22;;;;;;;11.20;7.80;;;19.20;99.90;;;;;;5011940;28;25077;-73
2021/09/02 11:05:55;;;;;;;13.77;8.23;;;19.30;99.90;;;;;;5010797;28;25054;-74
2021/09/02 11:08:35;;;;;;;15.75;7.60;;;19.40;99.90;;;;;;4999586;28;25064;-74
2021/09/02 11:11:18;;;;;;;16.00;7.82;;;19.40;99.90;;;;;;5008610;28;25053;-74
2021/09/02 11:13:46;;;;;;;11.98;8.00;;;19.20;99.90;;;;;;5011621;28;25074;-72
2021/09/02 11:16:17;;;;;;;12.95;8.15;;;19.30;99.90;;;;;;5012610;28;25155;-72
2021/09/02 11:18:48;;;;;;;14.15;7.93;;;19.40;99.90;;;;;;5013065;28;25063;-72
2021/09/02 11:21:19;;;;;;;14.70;8.60;;;19.70;99.90;;;;;;5013648;28;25056;-73
2021/09/02 11:23:48;;;;;;;11.23;8.07;;;20.00;99.90;;;;;;4995179;28;25071;-73
2021/09/02 11:26:33;;;;;;;11.90;7.85;;;20.00;99.90;;;;;;4994271;28;25200;-73
2021/09/02 11:28:59;;;;;;;15.35;8.32;;;19.30;99.90;;;;;;5005560;28;25070;-74
2021/09/02 11:31:25;;;;;;;13.45;7.25;;;19.30;99.90;;;;;;4992389;28;25152;-75
2021/09/02 11:33:52;;;;;;;20.20;10.40;;;19.40;99.90;;;;;;4993715;28;25088;-73
2021/09/02 11:36:19;;;;;;;15.30;9.68;;;19.50;99.90;;;;;;4996378;28;25059;-72
2021/09/02 11:38:46;;;;;;;16.92;10.27;;;19.60;99.90;;;;;;4999269;28;25053;-73
2021/09/02 11:41:22;;;;;;;15.13;10.52;;;19.90;99.90;;;;;;5017460;28;25077;-74
2021/09/02 11:43:51;;;;;;;17.27;10.52;;;20.10;99.90;;;;;;5017591;28;25111;-73
2021/09/02 11:46:18;;;;;;;17.20;10.25;;;20.20;99.90;;;;;;5016157;28;25107;-73
2021/09/02 11:48:48;;;;;;;15.45;10.85;;;20.00;99.90;;;;;;5013206;28;25075;-72
2021/09/02 11:51:31;;;;;;;20.65;10.32;;;19.80;99.90;;;;;;5000827;28;25159;-72
2021/09/02 11:54:11;;;;;;;16.02;10.98;;;19.60;99.90;;;;;;5015508;28;25172;-72
2021/09/02 11:56:40;;;;;;;17.65;11.25;;;19.50;99.90;;;;;;5015685;28;25099;-72
2021/09/02 11:59:07;;;;;;;20.88;11.65;;;19.50;99.90;;;;;;5017657;28;25091;-74
2021/09/02 12:01:33;;;;;;;21.58;12.25;;;19.50;99.90;;;;;;5018479;28;25151;-73
2021/09/02 12:03:59;;;;;;;18.75;11.57;;;19.50;99.90;;;;;;5014214;28;25049;-72
2021/09/02 12:06:26;;;;;;;18.38;12.48;;;19.70;99.90;;;;;;5013634;28;25120;-72
2021/09/02 12:08:54;;;;;;;18.65;11.40;;;19.60;99.90;;;;;;5012220;28;25103;-73
2021/09/02 12:11:21;;;;;;;18.63;11.70;;;19.70;99.90;;;;;;5016462;28;25071;-74
2021/09/02 12:13:47;;;;;;;19.80;12.93;;;19.90;99.90;;;;;;5018178;28;25148;-74
2021/09/02 12:16:20;;;;;;;17.35;11.18;;;19.50;99.90;;;;;;5019265;28;25046;-73
2021/09/02 12:18:46;;;;;;;;;;;19.30;99.90;;;;;;5013984;28;25093;-73
2021/09/02 12:21:19;;;;;;;17.20;10.85;;;19.50;99.90;;;;;;5012599;28;25131;-75
2021/09/02 12:23:53;;;;;;;23.85;12.90;;;19.80;99.90;;;;;;5011941;28;25160;-73
2021/09/02 12:26:20;;;;;;;20.85;12.30;;;19.70;99.90;;;;;;4999781;28;25127;-74
2021/09/02 12:28:49;;;;;;;17.05;11.63;;;19.90;99.90;;;;;;4991505;28;25088;-73
2021/09/02 12:31:30;;;;;;;19.27;11.80;;;19.90;99.90;;;;;;5001072;28;25051;-72
2021/09/02 12:34:05;;;;;;;19.05;12.13;;;19.90;99.90;;;;;;5011729;28;25049;-72
2021/09/02 12:36:36;;;;;;;17.50;11.70;;;19.90;99.90;;;;;;5012420;28;25076;-72
2021/09/02 12:39:21;;;;;;;16.33;12.32;;;19.90;99.90;;;;;;5011107;28;25083;-75